createdAt,value
2019-02-16T00:00:45.426Z,5.51
2019-02-16T00:01:49.515Z,5.53
2019-02-16T00:02:53.612Z,5.51
2019-02-16T00:03:57.545Z,5.57
2019-02-16T00:05:01.675Z,5.55
2019-02-16T00:06:05.842Z,5.51
2019-02-16T00:07:09.699Z,5.48
2019-02-16T00:08:13.591Z,5.48
2019-02-16T00:09:17.490Z,5.33
2019-02-16T00:10:21.926Z,5.50
2019-02-16T00:11:26.132Z,5.54
2019-02-16T00:12:30.339Z,5.53
2019-02-16T00:13:34.663Z,5.47
2019-02-16T00:14:38.803Z,5.47
2019-02-16T00:15:42.612Z,5.44
2019-02-16T00:16:46.600Z,5.43
2019-02-16T00:17:50.483Z,5.42
2019-02-16T00:18:54.382Z,5.40
2019-02-16T00:19:58.448Z,5.41
2019-02-16T00:21:04.257Z,5.41
2019-02-16T00:22:08.957Z,5.43
2019-02-16T00:23:13.239Z,5.41
2019-02-16T00:24:17.114Z,5.40
2019-02-16T00:25:21.238Z,5.40
2019-02-16T00:26:25.047Z,5.36
2019-02-16T00:27:28.859Z,5.44
2019-02-16T00:28:32.729Z,5.47
2019-02-16T00:29:36.799Z,5.49
2019-02-16T00:30:41.139Z,5.38
2019-02-16T00:31:45.326Z,5.35
2019-02-16T00:32:50.107Z,5.25
2019-02-16T00:33:54.497Z,5.24
2019-02-16T00:34:58.629Z,5.26
2019-02-16T00:36:02.438Z,5.23
2019-02-16T00:37:06.315Z,5.23
2019-02-16T00:38:10.486Z,5.21
2019-02-16T00:39:14.302Z,5.20
2019-02-16T00:40:18.188Z,5.15
2019-02-16T00:41:22.357Z,5.16
2019-02-16T00:42:26.307Z,5.14
2019-02-16T00:43:30.683Z,5.14
2019-02-16T00:44:34.503Z,5.13
2019-02-16T00:45:38.379Z,5.12
2019-02-16T00:46:42.184Z,5.12
2019-02-16T00:47:46.232Z,5.13
2019-02-16T00:48:50.786Z,5.12
2019-02-16T00:49:54.605Z,5.14
2019-02-16T00:50:58.412Z,5.13
2019-02-16T00:52:02.221Z,5.12
2019-02-16T00:53:06.104Z,5.11
2019-02-16T00:54:09.907Z,5.22
2019-02-16T00:55:13.987Z,5.15
2019-02-16T00:56:17.800Z,5.12
2019-02-16T00:57:21.875Z,5.09
2019-02-16T00:58:25.926Z,5.08
2019-02-16T00:59:30.003Z,5.08
2019-02-16T01:00:33.898Z,5.06
2019-02-16T01:01:37.762Z,5.06
2019-02-16T01:02:42.059Z,5.05
2019-02-16T01:03:46.127Z,5.09
2019-02-16T01:04:50.275Z,5.06
2019-02-16T01:05:54.088Z,5.12
2019-02-16T01:06:58.277Z,5.04
2019-02-16T01:08:02.756Z,4.99
2019-02-16T01:09:06.987Z,4.96
2019-02-16T01:10:10.934Z,4.97
2019-02-16T01:11:15.128Z,4.95
2019-02-16T01:12:18.952Z,4.94
2019-02-16T01:13:22.770Z,4.92
2019-02-16T01:14:27.101Z,4.93
2019-02-16T01:15:31.253Z,4.98
2019-02-16T01:16:35.076Z,4.99
2019-02-16T01:17:38.890Z,4.96
2019-02-16T01:18:42.706Z,5.06
2019-02-16T01:19:46.594Z,5.00
2019-02-16T01:20:50.425Z,4.98
2019-02-16T01:21:54.311Z,5.02
2019-02-16T01:22:58.125Z,4.96
2019-02-16T01:24:02.322Z,4.95
2019-02-16T01:25:07.023Z,4.98
2019-02-16T01:26:11.216Z,4.95
2019-02-16T01:27:15.421Z,4.90
2019-02-16T01:28:19.524Z,4.86
2019-02-16T01:29:23.409Z,4.82
2019-02-16T01:30:27.235Z,4.72
2019-02-16T01:31:31.048Z,4.75
2019-02-16T01:32:34.923Z,4.74
2019-02-16T01:33:38.991Z,4.67
2019-02-16T01:34:43.118Z,4.66
2019-02-16T01:35:47.323Z,4.66
2019-02-16T01:36:51.216Z,4.67
2019-02-16T01:37:55.031Z,4.75
2019-02-16T01:38:58.849Z,4.77
2019-02-16T01:40:02.669Z,4.73
2019-02-16T01:41:06.819Z,4.74
2019-02-16T01:42:11.024Z,4.66
2019-02-16T01:43:14.839Z,4.61
2019-02-16T01:47:13.428Z,4.63
2019-02-16T01:48:17.634Z,4.70
2019-02-16T01:49:21.834Z,4.49
2019-02-16T01:50:26.058Z,4.44
2019-02-16T01:51:32.213Z,4.46
2019-02-16T01:52:36.087Z,4.53
2019-02-16T01:53:40.335Z,4.50
2019-02-16T01:54:44.511Z,4.46
2019-02-16T01:55:48.630Z,4.48
2019-02-16T01:56:53.020Z,4.53
2019-02-16T01:57:57.382Z,4.55
2019-02-16T01:59:01.314Z,4.52
2019-02-16T02:00:05.698Z,4.49
2019-02-16T02:01:10.150Z,4.53
2019-02-16T02:02:14.331Z,4.53
2019-02-16T02:03:18.334Z,4.56
2019-02-16T02:04:22.187Z,4.57
2019-02-16T02:05:26.049Z,4.53
2019-02-16T02:06:29.921Z,4.51
2019-02-16T02:07:34.159Z,4.49
2019-02-16T02:08:38.169Z,4.50
2019-02-16T02:09:42.187Z,4.47
2019-02-16T02:10:46.121Z,4.42
2019-02-16T02:11:50.388Z,4.44
2019-02-16T02:12:54.322Z,4.48
2019-02-16T02:13:58.256Z,4.44
2019-02-16T02:15:02.639Z,4.38
2019-02-16T02:16:06.491Z,4.44
2019-02-16T02:17:10.439Z,4.41
2019-02-16T02:18:14.997Z,4.45
2019-02-16T02:19:18.926Z,4.49
2019-02-16T02:20:24.824Z,4.46
2019-02-16T02:21:29.041Z,4.39
2019-02-16T02:22:32.970Z,4.36
2019-02-16T02:23:37.156Z,4.37
2019-02-16T02:24:41.644Z,4.35
2019-02-16T02:25:45.569Z,4.35
2019-02-16T02:26:49.450Z,4.39
2019-02-16T02:27:53.307Z,4.49
2019-02-16T02:28:57.312Z,4.53
2019-02-16T02:30:01.876Z,4.53
2019-02-16T02:31:05.790Z,4.44
2019-02-16T02:32:10.017Z,4.36
2019-02-16T02:33:14.271Z,4.36
2019-02-16T02:34:18.887Z,4.34
2019-02-16T02:35:22.888Z,4.40
2019-02-16T02:36:27.197Z,4.40
2019-02-16T02:37:31.076Z,4.37
2019-02-16T02:38:35.511Z,4.31
2019-02-16T02:39:39.443Z,4.28
2019-02-16T02:40:43.706Z,4.27
2019-02-16T02:41:47.917Z,4.32
2019-02-16T02:42:52.125Z,4.32
2019-02-16T02:43:56.419Z,4.32
2019-02-16T02:45:00.429Z,4.28
2019-02-16T02:46:04.668Z,4.23
2019-02-16T02:47:08.595Z,4.19
2019-02-16T02:48:12.544Z,4.18
2019-02-16T02:49:16.802Z,4.15
2019-02-16T02:50:20.989Z,4.16
2019-02-16T02:51:24.983Z,4.14
2019-02-16T02:52:29.256Z,4.14
2019-02-16T02:53:33.268Z,4.16
2019-02-16T02:54:37.796Z,4.15
2019-02-16T02:55:41.725Z,4.16
2019-02-16T02:56:45.909Z,4.13
2019-02-16T02:57:50.400Z,4.13
2019-02-16T02:58:55.000Z,4.11
2019-02-16T02:59:59.259Z,4.12
2019-02-16T03:01:03.511Z,4.11
2019-02-16T03:02:07.451Z,4.08
2019-02-16T03:03:11.623Z,4.08
2019-02-16T03:04:15.628Z,4.08
2019-02-16T03:05:19.557Z,4.09
2019-02-16T03:06:23.488Z,4.07
2019-02-16T03:07:27.667Z,4.08
2019-02-16T03:08:32.191Z,4.06
2019-02-16T03:09:36.195Z,4.06
2019-02-16T03:10:40.734Z,4.04
2019-02-16T03:11:44.751Z,4.06
2019-02-16T03:12:49.199Z,4.05
2019-02-16T03:13:53.141Z,4.05
2019-02-16T03:14:57.307Z,4.04
2019-02-16T03:16:01.487Z,4.04
2019-02-16T03:17:05.748Z,4.03
2019-02-16T03:18:09.988Z,4.02
2019-02-16T03:19:13.916Z,4.02
2019-02-16T03:20:18.191Z,4.02
2019-02-16T03:21:22.200Z,4.00
2019-02-16T03:22:46.728Z,4.00
2019-02-16T03:23:51.287Z,3.99
2019-02-16T03:24:56.461Z,3.97
2019-02-16T03:26:33.512Z,3.97
2019-02-16T03:28:23.572Z,3.96
2019-02-16T03:29:34.843Z,3.92
2019-02-16T03:31:23.811Z,3.84
2019-02-16T03:33:03.701Z,3.82
2019-02-16T03:34:22.042Z,3.81
2019-02-16T03:36:19.096Z,3.73
2019-02-16T03:37:50.877Z,3.69
2019-02-16T03:39:08.339Z,3.66
2019-02-16T03:40:12.393Z,3.66
2019-02-16T03:41:16.620Z,3.61
2019-02-16T03:42:21.319Z,3.65
2019-02-16T03:43:25.687Z,3.72
2019-02-16T03:44:30.739Z,3.69
2019-02-16T03:45:34.782Z,3.63
2019-02-16T03:46:39.062Z,3.61
2019-02-16T03:47:43.414Z,3.65
2019-02-16T03:48:47.274Z,3.67
2019-02-16T03:49:51.576Z,3.68
2019-02-16T03:50:55.947Z,3.67
2019-02-16T03:52:00.298Z,3.58
2019-02-16T03:53:04.240Z,3.58
2019-02-16T03:54:08.409Z,3.53
2019-02-16T03:55:12.712Z,3.54
2019-02-16T03:56:16.976Z,3.60
2019-02-16T03:57:20.922Z,3.55
2019-02-16T03:58:25.426Z,3.49
2019-02-16T03:59:29.558Z,3.45
2019-02-16T04:00:33.797Z,3.51
2019-02-16T04:01:38.007Z,3.43
2019-02-16T04:02:42.372Z,3.37
2019-02-16T04:03:46.559Z,3.39
2019-02-16T04:04:50.943Z,3.40
2019-02-16T04:05:55.042Z,3.37
2019-02-16T04:06:58.976Z,3.38
2019-02-16T04:08:02.904Z,3.42
2019-02-16T04:09:07.488Z,3.44
2019-02-16T04:10:12.260Z,3.43
2019-02-16T04:11:16.692Z,3.41
2019-02-16T04:12:20.626Z,3.40
2019-02-16T04:13:24.494Z,3.32
2019-02-16T04:14:28.668Z,3.30
2019-02-16T04:15:32.692Z,3.31
2019-02-16T04:16:36.785Z,3.27
2019-02-16T04:17:40.878Z,3.29
2019-02-16T04:18:44.884Z,3.30
2019-02-16T04:19:48.811Z,3.23
2019-02-16T04:20:52.757Z,3.22
2019-02-16T04:21:56.928Z,3.23
2019-02-16T04:23:01.104Z,3.22
2019-02-16T04:24:05.362Z,3.21
2019-02-16T04:25:09.383Z,3.20
2019-02-16T04:26:13.556Z,3.22
2019-02-16T04:27:17.740Z,3.22
2019-02-16T04:28:21.681Z,3.29
2019-02-16T04:29:25.796Z,3.28
2019-02-16T04:30:29.668Z,3.32
2019-02-16T04:31:33.614Z,3.26
2019-02-16T04:32:37.727Z,3.21
2019-02-16T04:33:41.898Z,3.19
2019-02-16T04:34:45.759Z,3.16
2019-02-16T04:35:49.775Z,3.19
2019-02-16T04:36:53.785Z,3.19
2019-02-16T04:37:57.645Z,3.19
2019-02-16T04:39:01.587Z,3.13
2019-02-16T04:40:05.886Z,3.18
2019-02-16T04:41:09.907Z,3.15
2019-02-16T04:42:14.134Z,3.18
2019-02-16T04:43:18.582Z,3.17
2019-02-16T04:44:22.897Z,3.16
2019-02-16T04:45:27.410Z,3.12
2019-02-16T04:46:32.124Z,3.15
2019-02-16T04:47:36.839Z,3.12
2019-02-16T04:48:41.147Z,3.18
2019-02-16T04:49:45.357Z,3.14
2019-02-16T04:50:49.665Z,3.18
2019-02-16T04:51:53.602Z,3.16
2019-02-16T04:52:57.783Z,3.16
2019-02-16T04:54:01.649Z,3.13
2019-02-16T04:55:06.316Z,3.09
2019-02-16T04:56:10.587Z,3.07
2019-02-16T04:57:14.896Z,3.03
2019-02-16T04:58:19.103Z,3.03
2019-02-16T04:59:23.337Z,3.03
2019-02-16T05:00:27.255Z,3.02
2019-02-16T05:01:31.825Z,2.99
2019-02-16T05:02:35.693Z,3.06
2019-02-16T05:03:39.782Z,3.08
2019-02-16T05:04:43.718Z,3.03
2019-02-16T05:05:47.655Z,3.00
2019-02-16T05:06:51.631Z,2.98
2019-02-16T05:07:55.552Z,2.98
2019-02-16T05:08:59.537Z,2.99
2019-02-16T05:10:03.831Z,2.98
2019-02-16T05:11:08.063Z,2.98
2019-02-16T05:12:12.238Z,3.00
2019-02-16T05:13:16.639Z,2.99
2019-02-16T05:14:21.060Z,3.03
2019-02-16T05:15:25.676Z,2.98
2019-02-16T05:16:29.986Z,2.95
2019-02-16T05:17:34.003Z,3.00
2019-02-16T05:18:37.990Z,3.04
2019-02-16T05:19:42.202Z,3.09
2019-02-16T05:20:46.207Z,3.08
2019-02-16T05:21:50.279Z,2.99
2019-02-16T05:22:54.141Z,2.97
2019-02-16T05:23:58.369Z,2.98
2019-02-16T05:25:02.317Z,2.91
2019-02-16T05:26:06.226Z,2.89
2019-02-16T05:27:10.177Z,2.88
2019-02-16T05:28:14.376Z,2.88
2019-02-16T05:29:18.484Z,2.88
2019-02-16T05:30:22.507Z,2.87
2019-02-16T05:31:26.637Z,2.88
2019-02-16T05:32:31.006Z,2.88
2019-02-16T05:33:34.952Z,2.86
2019-02-16T05:34:39.227Z,2.84
2019-02-16T05:35:43.397Z,2.84
2019-02-16T05:36:48.126Z,2.83
2019-02-16T05:37:52.222Z,2.82
2019-02-16T05:38:56.409Z,2.81
2019-02-16T05:40:00.418Z,2.80
2019-02-16T05:41:04.414Z,2.79
2019-02-16T05:42:08.267Z,2.79
2019-02-16T05:43:12.712Z,2.79
2019-02-16T05:44:16.642Z,2.79
2019-02-16T05:45:20.568Z,2.77
2019-02-16T05:46:24.827Z,2.73
2019-02-16T05:47:29.252Z,2.72
2019-02-16T05:48:33.204Z,2.69
2019-02-16T05:49:37.904Z,2.66
2019-02-16T05:50:41.835Z,2.66
2019-02-16T05:51:46.000Z,2.63
2019-02-16T05:52:54.418Z,2.70
2019-02-16T05:53:56.049Z,2.72
2019-02-16T05:55:00.328Z,2.73
2019-02-16T05:56:04.982Z,2.75
2019-02-16T05:57:09.186Z,2.71
2019-02-16T05:58:13.550Z,2.62
2019-02-16T05:59:17.496Z,2.65
2019-02-16T06:00:25.185Z,2.60
2019-02-16T06:01:29.695Z,2.50
2019-02-16T06:02:34.003Z,2.46
2019-02-16T06:03:38.136Z,2.41
2019-02-16T06:04:42.347Z,2.39
2019-02-16T06:05:46.278Z,2.38
2019-02-16T06:06:50.308Z,2.35
2019-02-16T06:07:54.253Z,2.29
2019-02-16T06:08:58.231Z,2.30
2019-02-16T06:10:02.146Z,2.27
2019-02-16T06:11:06.418Z,2.26
2019-02-16T06:12:11.164Z,2.28
2019-02-16T06:13:15.330Z,2.23
2019-02-16T06:14:19.490Z,2.22
2019-02-16T06:15:23.574Z,2.25
2019-02-16T06:16:27.449Z,2.24
2019-02-16T06:17:31.818Z,2.24
2019-02-16T06:18:36.275Z,2.23
2019-02-16T06:19:40.479Z,2.24
2019-02-16T06:20:44.680Z,2.23
2019-02-16T06:21:48.995Z,2.27
2019-02-16T06:22:53.300Z,2.28
2019-02-16T06:23:57.912Z,2.28
2019-02-16T06:25:01.829Z,2.34
2019-02-16T06:26:05.937Z,2.38
2019-02-16T06:27:10.225Z,2.43
2019-02-16T06:28:14.427Z,2.44
2019-02-16T06:29:18.942Z,2.46
2019-02-16T06:30:23.147Z,2.46
2019-02-16T06:31:27.089Z,2.49
2019-02-16T06:32:31.240Z,2.52
2019-02-16T06:33:35.789Z,2.51
2019-02-16T06:34:40.116Z,2.54
2019-02-16T06:35:48.121Z,2.58
2019-02-16T06:36:52.578Z,2.61
2019-02-16T06:37:57.108Z,2.64
2019-02-16T06:39:01.311Z,2.60
2019-02-16T06:40:05.713Z,2.60
2019-02-16T06:41:09.651Z,2.60
2019-02-16T06:42:13.517Z,2.60
2019-02-16T06:43:17.466Z,2.64
2019-02-16T06:44:21.495Z,2.65
2019-02-16T06:45:25.512Z,2.66
2019-02-16T06:46:29.382Z,2.67
2019-02-16T06:47:33.414Z,2.69
2019-02-16T06:48:37.336Z,2.67
2019-02-16T06:49:41.660Z,2.66
2019-02-16T06:50:45.671Z,2.65
2019-02-16T06:51:50.063Z,2.67
2019-02-16T06:52:54.006Z,2.68
2019-02-16T06:53:57.946Z,2.69
2019-02-16T06:55:02.132Z,2.66
2019-02-16T06:56:20.050Z,2.68
2019-02-16T06:57:29.280Z,2.65
2019-02-16T06:58:33.491Z,2.62
2019-02-16T06:59:37.364Z,2.59
2019-02-16T07:00:41.591Z,2.57
2019-02-16T07:01:45.453Z,2.57
2019-02-16T07:02:49.821Z,2.55
2019-02-16T07:03:53.932Z,2.58
2019-02-16T07:04:58.386Z,2.59
2019-02-16T07:06:02.566Z,2.57
2019-02-16T07:07:07.495Z,2.55
2019-02-16T07:08:11.437Z,2.55
2019-02-16T07:09:15.359Z,2.57
2019-02-16T07:10:19.563Z,2.62
2019-02-16T07:11:24.068Z,2.61
2019-02-16T07:12:28.167Z,2.54
2019-02-16T07:13:32.282Z,2.53
2019-02-16T07:14:36.471Z,2.53
2019-02-16T07:15:40.494Z,2.51
2019-02-16T07:16:56.422Z,2.44
2019-02-16T07:18:26.003Z,2.42
2019-02-16T07:19:39.513Z,2.36
2019-02-16T07:20:43.889Z,2.33
2019-02-16T07:21:48.092Z,2.32
2019-02-16T07:22:51.951Z,2.31
2019-02-16T07:23:56.299Z,2.32
2019-02-16T07:25:00.571Z,2.31
2019-02-16T07:26:05.009Z,2.35
2019-02-16T07:27:09.242Z,2.36
2019-02-16T07:28:13.223Z,2.34
2019-02-16T07:29:17.232Z,2.34
2019-02-16T07:30:21.185Z,2.31
2019-02-16T07:31:25.540Z,2.26
2019-02-16T07:32:29.842Z,2.32
2019-02-16T07:33:33.778Z,2.29
2019-02-16T07:34:37.808Z,2.26
2019-02-16T07:35:41.755Z,2.29
2019-02-16T07:36:45.686Z,2.30
2019-02-16T07:37:49.568Z,2.27
2019-02-16T07:38:53.581Z,2.30
2019-02-16T07:39:58.051Z,2.27
2019-02-16T07:41:02.000Z,2.33
2019-02-16T07:42:06.015Z,2.40
2019-02-16T07:43:20.294Z,2.41
2019-02-16T07:44:43.299Z,2.42
2019-02-16T07:45:55.487Z,2.39
2019-02-16T07:47:10.054Z,2.38
2019-02-16T07:48:21.558Z,2.39
2019-02-16T07:49:30.971Z,2.36
2019-02-16T07:50:51.963Z,2.29
2019-02-16T07:52:05.870Z,2.28
2019-02-16T07:53:31.381Z,2.29
2019-02-16T07:54:46.297Z,2.28
2019-02-16T07:55:58.727Z,2.28
2019-02-16T07:57:07.503Z,2.28
2019-02-16T07:58:19.076Z,2.26
2019-02-16T07:59:34.515Z,2.29
2019-02-16T08:01:06.498Z,2.32
2019-02-16T08:02:29.664Z,2.32
2019-02-16T08:03:53.007Z,2.35
2019-02-16T08:05:19.266Z,2.34
2019-02-16T08:06:45.262Z,2.35
2019-02-16T08:07:58.955Z,2.36
2019-02-16T08:09:13.102Z,2.34
2019-02-16T08:10:41.115Z,2.32
2019-02-16T08:12:07.065Z,2.30
2019-02-16T08:13:33.434Z,2.32
2019-02-16T08:15:08.786Z,2.30
2019-02-16T08:16:18.471Z,2.30
2019-02-16T08:17:37.644Z,2.40
2019-02-16T08:19:07.450Z,2.40
2019-02-16T08:20:43.297Z,2.43
2019-02-16T08:21:57.762Z,2.47
2019-02-16T08:23:11.542Z,2.55
2019-02-16T08:24:49.910Z,2.55
2019-02-16T08:26:01.019Z,2.53
2019-02-16T08:27:13.565Z,2.61
2019-02-16T08:28:28.903Z,2.59
2019-02-16T08:29:40.711Z,2.67
2019-02-16T08:31:03.043Z,2.65
2019-02-16T08:32:22.474Z,2.57
2019-02-16T08:33:32.127Z,2.53
2019-02-16T08:34:46.022Z,2.57
2019-02-16T08:36:08.577Z,2.62
2019-02-16T08:37:50.207Z,2.66
2019-02-16T08:39:04.926Z,2.71
2019-02-16T08:40:34.327Z,2.84
2019-02-16T08:42:06.293Z,2.90
2019-02-16T08:43:18.374Z,2.99
2019-02-16T08:44:35.963Z,2.98
2019-02-16T08:45:49.415Z,3.01
2019-02-16T08:47:09.668Z,3.05
2019-02-16T08:48:20.130Z,3.09
2019-02-16T08:49:49.754Z,3.04
2019-02-16T08:51:03.787Z,3.04
2019-02-16T08:52:32.454Z,3.16
2019-02-16T08:54:00.083Z,3.17
2019-02-16T08:55:22.034Z,3.27
2019-02-16T08:56:54.307Z,3.34
2019-02-16T08:58:11.720Z,3.39
2019-02-16T08:59:29.112Z,3.43
2019-02-16T09:01:01.438Z,3.51
2019-02-16T09:02:24.736Z,3.58
2019-02-16T09:03:54.358Z,3.62
2019-02-16T09:05:23.573Z,3.69
2019-02-16T09:06:37.380Z,3.73
2019-02-16T09:07:58.677Z,3.72
2019-02-16T09:09:20.156Z,3.77
2019-02-16T09:10:50.279Z,3.81
2019-02-16T09:12:08.772Z,3.85
2019-02-16T09:13:23.731Z,3.92
2019-02-16T09:14:36.055Z,3.94
2019-02-16T09:15:52.605Z,3.94
2019-02-16T09:17:08.998Z,4.03
2019-02-16T09:18:31.262Z,4.03
2019-02-16T09:19:51.701Z,4.12
2019-02-16T09:21:14.480Z,4.17
2019-02-16T09:22:35.183Z,4.30
2019-02-16T09:24:04.048Z,4.38
2019-02-16T09:25:27.293Z,4.41
2019-02-16T09:26:48.471Z,4.47
2019-02-16T09:28:17.641Z,4.58
2019-02-16T09:29:39.790Z,4.62
2019-02-16T09:31:11.756Z,4.70
2019-02-16T09:32:37.458Z,4.75
2019-02-16T09:33:54.827Z,4.83
2019-02-16T09:35:23.678Z,4.92
2019-02-16T09:36:34.200Z,4.92
2019-02-16T09:37:57.193Z,4.91
2019-02-16T09:39:16.624Z,4.94
2019-02-16T09:40:48.892Z,5.11
2019-02-16T09:42:14.983Z,5.22
2019-02-16T09:43:31.403Z,5.27
2019-02-16T09:44:51.153Z,5.27
2019-02-16T09:46:12.086Z,5.30
2019-02-16T09:47:40.542Z,5.37
2019-02-16T09:48:51.988Z,5.54
2019-02-16T09:50:30.692Z,5.55
2019-02-16T09:51:47.227Z,5.59
2019-02-16T09:53:03.973Z,5.66
2019-02-16T09:54:27.354Z,5.71
2019-02-16T09:55:48.590Z,5.72
2019-02-16T09:57:08.731Z,5.75
2019-02-16T09:58:37.453Z,5.84
2019-02-16T09:59:51.621Z,5.92
2019-02-16T10:01:13.487Z,5.93
2019-02-16T10:02:28.291Z,6.05
2019-02-16T10:03:57.351Z,6.08
2019-02-16T10:05:10.243Z,6.09
2019-02-16T10:06:41.367Z,6.16
2019-02-16T10:08:04.546Z,6.19
2019-02-16T10:09:14.591Z,6.25
2019-02-16T10:10:37.316Z,6.33
2019-02-16T10:12:04.068Z,6.38
2019-02-16T10:13:34.791Z,6.41
2019-02-16T10:15:01.294Z,6.46
2019-02-16T10:16:13.946Z,6.53
2019-02-16T10:17:30.518Z,6.58
2019-02-16T10:18:44.633Z,6.64
2019-02-16T10:19:56.621Z,6.70
2019-02-16T10:21:10.353Z,6.86
2019-02-16T10:22:25.814Z,6.85
2019-02-16T10:23:44.296Z,6.89
2019-02-16T10:25:15.934Z,6.94
2019-02-16T10:26:50.919Z,6.97
2019-02-16T10:28:06.209Z,7.02
2019-02-16T10:29:23.438Z,7.08
2019-02-16T10:30:37.532Z,7.13
2019-02-16T10:31:59.416Z,7.19
2019-02-16T10:33:11.967Z,7.31
2019-02-16T10:34:34.647Z,7.31
2019-02-16T10:35:45.498Z,7.36
2019-02-16T10:37:01.485Z,7.38
2019-02-16T10:38:24.506Z,7.41
2019-02-16T10:39:47.780Z,7.47
2019-02-16T10:41:16.794Z,7.56
2019-02-16T10:42:33.532Z,7.64
2019-02-16T10:44:09.723Z,7.68
2019-02-16T10:45:29.981Z,7.74
2019-02-16T10:46:48.731Z,7.77
2019-02-16T10:48:01.223Z,7.82
2019-02-16T10:49:17.126Z,7.85
2019-02-16T10:50:52.363Z,7.91
2019-02-16T10:52:02.291Z,8.00
2019-02-16T10:53:24.538Z,8.05
2019-02-16T10:54:35.464Z,8.11
2019-02-16T10:56:01.762Z,8.25
2019-02-16T10:57:33.647Z,8.25
2019-02-16T10:59:05.954Z,8.38
2019-02-16T11:00:31.980Z,8.47
2019-02-16T11:01:42.252Z,8.52
2019-02-16T11:02:58.741Z,8.54
2019-02-16T11:04:21.975Z,8.61
2019-02-16T11:06:00.099Z,8.64
2019-02-16T11:07:23.107Z,8.72
2019-02-16T11:08:49.118Z,8.84
2019-02-16T11:09:58.243Z,8.92
2019-02-16T11:11:39.776Z,8.97
2019-02-16T11:12:56.759Z,8.93
2019-02-16T11:14:14.383Z,8.99
2019-02-16T11:15:34.020Z,9.04
2019-02-16T11:16:55.449Z,9.07
2019-02-16T11:18:18.986Z,9.09
2019-02-16T11:19:36.783Z,9.15
2019-02-16T11:21:07.939Z,9.24
2019-02-16T11:22:17.534Z,9.27
2019-02-16T11:23:58.530Z,9.36
2019-02-16T11:25:14.169Z,9.39
2019-02-16T11:26:29.206Z,9.51
2019-02-16T11:27:42.877Z,9.62
2019-02-16T11:29:11.817Z,9.66
2019-02-16T11:30:25.358Z,9.65
2019-02-16T11:31:51.810Z,9.78
2019-02-16T11:33:19.603Z,9.77
2019-02-16T11:35:01.156Z,9.78
2019-02-16T11:36:14.778Z,9.93
2019-02-16T11:37:50.283Z,10.01
2019-02-16T11:39:13.376Z,10.08
2019-02-16T11:40:30.921Z,10.13
2019-02-16T11:41:45.571Z,10.13
2019-02-16T11:43:01.323Z,10.32
2019-02-16T11:44:27.252Z,10.27
2019-02-16T11:45:56.624Z,10.33
2019-02-16T11:47:22.731Z,10.31
2019-02-16T11:48:48.177Z,10.29
2019-02-16T11:50:11.328Z,10.33
2019-02-16T11:51:25.057Z,10.39
2019-02-16T11:53:06.547Z,10.46
2019-02-16T11:54:20.673Z,10.58
2019-02-16T11:55:43.678Z,10.67
2019-02-16T11:57:08.716Z,10.72
2019-02-16T11:58:32.480Z,10.70
2019-02-16T12:00:13.775Z,10.74
2019-02-16T12:01:40.849Z,10.80
2019-02-16T12:02:54.816Z,10.85
2019-02-16T12:04:04.261Z,10.95
2019-02-16T12:05:26.491Z,10.96
2019-02-16T12:06:37.624Z,10.99
2019-02-16T12:08:01.816Z,11.06
2019-02-16T12:09:37.463Z,11.11
2019-02-16T12:10:51.409Z,11.14
2019-02-16T12:12:29.256Z,11.20
2019-02-16T12:13:51.011Z,11.27
2019-02-16T12:15:02.860Z,11.33
2019-02-16T12:16:34.873Z,11.37
2019-02-16T12:17:57.249Z,11.43
2019-02-16T12:19:25.843Z,11.46
2019-02-16T12:20:54.828Z,11.52
2019-02-16T12:22:32.844Z,11.56
2019-02-16T12:23:43.504Z,11.61
2019-02-16T12:25:09.091Z,11.69
2019-02-16T12:26:22.961Z,11.72
2019-02-16T12:27:36.271Z,11.76
2019-02-16T12:28:55.226Z,11.81
2019-02-16T12:30:07.085Z,11.86
2019-02-16T12:31:31.361Z,11.90
2019-02-16T12:32:53.591Z,11.94
2019-02-16T12:34:26.188Z,11.95
2019-02-16T12:35:41.453Z,11.97
2019-02-16T12:37:10.305Z,11.99
2019-02-16T12:38:22.803Z,12.04
2019-02-16T12:39:44.634Z,12.09
2019-02-16T12:41:01.252Z,12.12
2019-02-16T12:42:23.279Z,12.16
2019-02-16T12:43:56.256Z,12.19
2019-02-16T12:45:28.429Z,12.20
2019-02-16T12:46:44.605Z,12.25
2019-02-16T12:48:00.453Z,12.30
2019-02-16T12:49:26.309Z,12.34
2019-02-16T12:50:59.547Z,12.37
2019-02-16T12:52:22.842Z,12.44
2019-02-16T12:53:44.549Z,12.47
2019-02-16T12:55:14.239Z,12.51
2019-02-16T12:56:32.079Z,12.53
2019-02-16T12:57:44.901Z,12.55
2019-02-16T12:59:05.162Z,12.60
2019-02-16T13:00:26.911Z,12.64
2019-02-16T13:01:40.794Z,12.69
2019-02-16T13:02:55.695Z,12.76
2019-02-16T13:04:31.064Z,12.78
2019-02-16T13:05:50.856Z,12.84
2019-02-16T13:07:10.684Z,12.95
2019-02-16T13:08:20.493Z,12.92
2019-02-16T13:09:36.272Z,13.07
2019-02-16T13:11:15.092Z,13.12
2019-02-16T13:12:25.957Z,13.12
2019-02-16T13:13:44.210Z,13.12
2019-02-16T13:15:16.593Z,13.12
2019-02-16T13:16:27.092Z,13.12
2019-02-16T13:18:00.119Z,13.14
2019-02-16T13:19:22.292Z,13.17
2019-02-16T13:20:35.637Z,13.19
2019-02-16T13:22:04.535Z,13.17
2019-02-16T13:23:33.577Z,13.19
2019-02-16T13:24:49.867Z,13.22
2019-02-16T13:26:03.339Z,13.25
2019-02-16T13:27:26.266Z,13.29
2019-02-16T13:28:40.787Z,13.35
2019-02-16T13:30:01.840Z,13.38
2019-02-16T13:31:20.152Z,13.43
2019-02-16T13:32:53.519Z,13.49
2019-02-16T13:34:25.517Z,13.48
2019-02-16T13:35:47.075Z,13.48
2019-02-16T13:37:09.303Z,13.50
2019-02-16T13:38:35.232Z,13.54
2019-02-16T13:40:07.596Z,13.58
2019-02-16T13:41:30.774Z,13.62
2019-02-16T13:42:52.317Z,13.65
2019-02-16T13:44:06.604Z,13.68
2019-02-16T13:45:38.871Z,13.67
2019-02-16T13:47:08.456Z,13.70
2019-02-16T13:48:23.571Z,13.75
2019-02-16T13:49:42.292Z,13.79
2019-02-16T13:50:55.895Z,13.79
2019-02-16T13:52:24.107Z,13.80
2019-02-16T13:53:47.112Z,13.81
2019-02-16T13:54:56.333Z,13.84
2019-02-16T13:56:18.017Z,13.87
2019-02-16T13:57:41.239Z,13.88
2019-02-16T13:58:57.208Z,13.88
2019-02-16T14:00:38.789Z,13.85
2019-02-16T14:01:53.628Z,13.92
2019-02-16T14:03:03.261Z,13.89
2019-02-16T14:04:19.467Z,13.89
2019-02-16T14:05:39.029Z,13.91
2019-02-16T14:06:50.900Z,13.94
2019-02-16T14:08:12.735Z,13.96
2019-02-16T14:09:26.740Z,14.00
2019-02-16T14:10:49.751Z,13.98
2019-02-16T14:12:22.578Z,13.99
2019-02-16T14:13:48.820Z,14.00
2019-02-16T14:15:14.835Z,14.03
2019-02-16T14:16:37.931Z,14.03
2019-02-16T14:17:51.589Z,14.08
2019-02-16T14:18:55.606Z,14.08
2019-02-16T14:19:59.543Z,14.08
2019-02-16T14:21:03.820Z,14.07
2019-02-16T14:22:08.133Z,14.12
2019-02-16T14:23:12.152Z,14.12
2019-02-16T14:24:18.283Z,14.13
2019-02-16T14:25:27.443Z,14.12
2019-02-16T14:26:31.639Z,14.12
2019-02-16T14:27:36.016Z,14.13
2019-02-16T14:28:40.222Z,14.14
2019-02-16T14:29:44.431Z,14.15
2019-02-16T14:30:49.059Z,14.16
2019-02-16T14:31:53.071Z,14.20
2019-02-16T14:32:57.088Z,14.23
2019-02-16T14:34:01.075Z,14.23
2019-02-16T14:35:06.084Z,14.24
2019-02-16T14:36:09.956Z,14.29
2019-02-16T14:37:31.431Z,14.27
2019-02-16T14:38:40.979Z,14.26
2019-02-16T14:39:44.936Z,14.21
2019-02-16T14:40:49.333Z,14.20
2019-02-16T14:41:53.275Z,14.20
2019-02-16T14:42:57.428Z,14.21
2019-02-16T14:44:01.368Z,14.21
2019-02-16T14:45:05.755Z,14.20
2019-02-16T14:46:10.249Z,14.20
2019-02-16T14:47:14.183Z,14.19
2019-02-16T14:48:18.321Z,14.18
2019-02-16T14:49:22.179Z,14.18
2019-02-16T14:50:26.875Z,14.23
2019-02-16T14:51:30.894Z,14.20
2019-02-16T14:52:35.142Z,14.20
2019-02-16T14:53:39.161Z,14.19
2019-02-16T14:54:43.524Z,14.18
2019-02-16T14:55:53.864Z,14.18
2019-02-16T14:56:53.532Z,14.25
2019-02-16T14:57:57.756Z,14.21
2019-02-16T14:59:01.949Z,14.25
2019-02-16T15:00:06.494Z,14.23
2019-02-16T15:01:10.752Z,14.21
2019-02-16T15:02:15.008Z,14.19
2019-02-16T15:03:19.141Z,14.18
2019-02-16T15:04:23.000Z,14.17
2019-02-16T15:05:27.179Z,14.16
2019-02-16T15:06:31.120Z,14.15
2019-02-16T15:07:35.611Z,14.16
2019-02-16T15:08:39.809Z,14.14
2019-02-16T15:09:44.049Z,14.12
2019-02-16T15:10:48.227Z,14.11
2019-02-16T15:11:52.401Z,14.11
2019-02-16T15:12:56.662Z,14.08
2019-02-16T15:14:00.876Z,14.06
2019-02-16T15:15:05.180Z,14.08
2019-02-16T15:17:07.244Z,14.09
2019-02-16T15:18:11.347Z,14.03
2019-02-16T15:19:15.469Z,14.02
2019-02-16T15:20:19.403Z,14.03
2019-02-16T15:21:23.332Z,14.02
2019-02-16T15:22:27.439Z,14.06
2019-02-16T15:23:31.799Z,14.06
2019-02-16T15:24:35.747Z,14.01
2019-02-16T15:25:39.939Z,14.02
2019-02-16T15:26:44.123Z,14.03
2019-02-16T15:27:48.325Z,14.10
2019-02-16T15:28:52.602Z,14.11
2019-02-16T15:29:56.716Z,14.11
2019-02-16T15:31:01.144Z,14.06
2019-02-16T15:32:05.459Z,14.07
2019-02-16T15:33:09.328Z,14.02
2019-02-16T15:34:13.709Z,14.00
2019-02-16T15:35:17.738Z,13.98
2019-02-16T15:36:24.255Z,13.98
2019-02-16T15:37:27.987Z,13.96
2019-02-16T15:38:32.170Z,13.95
2019-02-16T15:39:36.332Z,13.93
2019-02-16T15:40:40.541Z,13.97
2019-02-16T15:41:44.562Z,14.02